sensor_id;sensor_type;location;lat;lon;timestamp;pressure;altitude;pressure_sealevel;temperature;humidity
55187;BME280;55457;52.002;5.464;2023-07-29T00:01:40;100529.97;;;23.63;65.63
55187;BME280;55457;52.002;5.464;2023-07-29T00:04:06;100531.03;;;23.62;65.45
55187;BME280;55457;52.002;5.464;2023-07-29T00:06:34;100532.69;;;23.63;65.51
55187;BME280;55457;52.002;5.464;2023-07-29T00:09:00;100529.16;;;23.63;65.43
55187;BME280;55457;52.002;5.464;2023-07-29T00:11:25;100517.44;;;23.62;65.41
55187;BME280;55457;52.002;5.464;2023-07-29T00:13:51;100513.91;;;23.62;65.54
55187;BME280;55457;52.002;5.464;2023-07-29T00:16:17;100520.72;;;23.64;65.27
55187;BME280;55457;52.002;5.464;2023-07-29T00:18:43;100511.19;;;23.62;65.72
55187;BME280;55457;52.002;5.464;2023-07-29T00:21:10;100496.53;;;23.63;65.56
55187;BME280;55457;52.002;5.464;2023-07-29T00:23:35;100498.16;;;23.64;65.84
55187;BME280;55457;52.002;5.464;2023-07-29T00:26:00;100490.81;;;23.64;65.34
55187;BME280;55457;52.002;5.464;2023-07-29T00:28:26;100493.53;;;23.64;65.22
55187;BME280;55457;52.002;5.464;2023-07-29T00:30:51;100508.22;;;23.63;65.41
55187;BME280;55457;52.002;5.464;2023-07-29T00:33:16;100514.47;;;23.64;65.15
55187;BME280;55457;52.002;5.464;2023-07-29T00:35:42;100519.09;;;23.63;65.21
55187;BME280;55457;52.002;5.464;2023-07-29T00:38:07;100522.88;;;23.62;65.20
55187;BME280;55457;52.002;5.464;2023-07-29T00:40:35;100529.16;;;23.63;65.09
55187;BME280;55457;52.002;5.464;2023-07-29T00:43:01;100529.97;;;23.63;65.08
55187;BME280;55457;52.002;5.464;2023-07-29T00:45:26;100517.44;;;23.62;65.30
55187;BME280;55457;52.002;5.464;2023-07-29T00:47:54;100509.28;;;23.62;65.14
55187;BME280;55457;52.002;5.464;2023-07-29T00:50:19;100503.84;;;23.62;65.18
55187;BME280;55457;52.002;5.464;2023-07-29T00:52:45;100501.13;;;23.62;65.17
55187;BME280;55457;52.002;5.464;2023-07-29T00:55:11;100496.53;;;23.63;65.12
55187;BME280;55457;52.002;5.464;2023-07-29T00:57:37;100488.38;;;23.63;65.13
55187;BME280;55457;52.002;5.464;2023-07-29T01:00:03;100491.34;;;23.61;65.19
55187;BME280;55457;52.002;5.464;2023-07-29T01:02:30;100501.13;;;23.62;65.17
55187;BME280;55457;52.002;5.464;2023-07-29T01:04:58;100499.78;;;23.60;65.05
55187;BME280;55457;52.002;5.464;2023-07-29T01:07:36;100497.06;;;23.60;64.99
55187;BME280;55457;52.002;5.464;2023-07-29T01:15:54;100494.59;;;23.58;64.92
55187;BME280;55457;52.002;5.464;2023-07-29T01:18:28;100498.41;;;23.57;64.86
55187;BME280;55457;52.002;5.464;2023-07-29T01:20:59;100493.25;;;23.56;65.09
55187;BME280;55457;52.002;5.464;2023-07-29T01:23:34;100496.78;;;23.56;65.16
55187;BME280;55457;52.002;5.464;2023-07-29T01:26:01;100502.22;;;23.56;65.00
55187;BME280;55457;52.002;5.464;2023-07-29T01:28:27;100495.97;;;23.56;65.05
55187;BME280;55457;52.002;5.464;2023-07-29T01:33:47;100496.78;;;23.56;65.08
55187;BME280;55457;52.002;5.464;2023-07-29T01:36:21;100493.78;;;23.58;64.92
55187;BME280;55457;52.002;5.464;2023-07-29T01:38:48;100493.78;;;23.58;65.06
55187;BME280;55457;52.002;5.464;2023-07-29T01:41:16;100491.34;;;23.56;64.98
55187;BME280;55457;52.002;5.464;2023-07-29T01:43:43;100504.94;;;23.56;65.00
55187;BME280;55457;52.002;5.464;2023-07-29T01:46:13;100492.44;;;23.55;64.95
55187;BME280;55457;52.002;5.464;2023-07-29T01:48:38;100488.91;;;23.55;65.08
55187;BME280;55457;52.002;5.464;2023-07-29T01:51:05;100483.47;;;23.55;65.12
55187;BME280;55457;52.002;5.464;2023-07-29T01:53:32;100471.75;;;23.54;65.01
55187;BME280;55457;52.002;5.464;2023-07-29T01:55:58;100475.56;;;23.53;64.87
55187;BME280;55457;52.002;5.464;2023-07-29T01:58:24;100482.63;;;23.54;64.89
55187;BME280;55457;52.002;5.464;2023-07-29T02:03:15;100470.13;;;23.53;64.88
55187;BME280;55457;52.002;5.464;2023-07-29T02:05:40;100470.13;;;23.53;64.87
55187;BME280;55457;52.002;5.464;2023-07-29T02:08:07;100485.63;;;23.53;64.95
55187;BME280;55457;52.002;5.464;2023-07-29T02:10:33;100477.75;;;23.51;64.72
55187;BME280;55457;52.002;5.464;2023-07-29T02:12:58;100473.13;;;23.52;65.00
55187;BME280;55457;52.002;5.464;2023-07-29T02:15:23;100468.50;;;23.52;64.82
55187;BME280;55457;52.002;5.464;2023-07-29T02:17:50;100475.56;;;23.53;65.00
55187;BME280;55457;52.002;5.464;2023-07-29T02:20:16;100466.06;;;23.51;65.18
55187;BME280;55457;52.002;5.464;2023-07-29T02:22:41;100464.16;;;23.51;65.18
55187;BME280;55457;52.002;5.464;2023-07-29T02:25:06;100471.50;;;23.51;65.14
55187;BME280;55457;52.002;5.464;2023-07-29T02:27:32;100470.69;;;23.50;64.73
55187;BME280;55457;52.002;5.464;2023-07-29T02:29:58;100469.88;;;23.50;65.00
55187;BME280;55457;52.002;5.464;2023-07-29T02:32:23;100469.06;;;23.49;65.04
55187;BME280;55457;52.002;5.464;2023-07-29T02:34:49;100463.63;;;23.49;65.12
55187;BME280;55457;52.002;5.464;2023-07-29T02:37:14;100453.78;;;23.48;64.91
55187;BME280;55457;52.002;5.464;2023-07-29T02:39:39;100459.25;;;23.48;65.28
55187;BME280;55457;52.002;5.464;2023-07-29T02:42:05;100460.34;;;23.47;65.22
55187;BME280;55457;52.002;5.464;2023-07-29T02:44:30;100454.91;;;23.47;65.08
55187;BME280;55457;52.002;5.464;2023-07-29T02:46:56;100456.81;;;23.47;65.11
55187;BME280;55457;52.002;5.464;2023-07-29T02:49:22;100447.84;;;23.46;65.14
55187;BME280;55457;52.002;5.464;2023-07-29T02:51:48;100461.44;;;23.46;65.36
55187;BME280;55457;52.002;5.464;2023-07-29T02:54:13;100450.56;;;23.46;65.16
55187;BME280;55457;52.002;5.464;2023-07-29T02:56:38;100446.22;;;23.45;65.05
55187;BME280;55457;52.002;5.464;2023-07-29T02:59:04;100452.47;;;23.46;65.35
55187;BME280;55457;52.002;5.464;2023-07-29T03:01:30;100452.75;;;23.39;65.64
55187;BME280;55457;52.002;5.464;2023-07-29T03:03:55;100436.44;;;23.39;65.69
55187;BME280;55457;52.002;5.464;2023-07-29T03:06:21;100436.44;;;23.39;65.28
55187;BME280;55457;52.002;5.464;2023-07-29T03:08:46;100427.19;;;23.40;65.75
55187;BME280;55457;52.002;5.464;2023-07-29T03:11:13;100435.31;;;23.40;65.50
55187;BME280;55457;52.002;5.464;2023-07-29T03:13:39;100434.25;;;23.41;65.32
55187;BME280;55457;52.002;5.464;2023-07-29T03:16:13;100428.78;;;23.41;65.54
55187;BME280;55457;52.002;5.464;2023-07-29T03:18:39;100435.88;;;23.42;65.58
55187;BME280;55457;52.002;5.464;2023-07-29T03:21:05;100433.13;;;23.42;65.07
55187;BME280;55457;52.002;5.464;2023-07-29T03:23:31;100437.50;;;23.43;65.32
55187;BME280;55457;52.002;5.464;2023-07-29T03:25:58;100441.31;;;23.42;65.20
55187;BME280;55457;52.002;5.464;2023-07-29T03:28:25;100447.56;;;23.42;65.20
55187;BME280;55457;52.002;5.464;2023-07-29T03:30:51;100454.63;;;23.43;65.47
55187;BME280;55457;52.002;5.464;2023-07-29T03:33:16;100441.84;;;23.44;65.13
55187;BME280;55457;52.002;5.464;2023-07-29T03:35:41;100432.03;;;23.43;65.20
55187;BME280;55457;52.002;5.464;2023-07-29T03:38:09;100432.84;;;23.43;65.30
55187;BME280;55457;52.002;5.464;2023-07-29T03:40:35;100438.28;;;23.43;65.29
55187;BME280;55457;52.002;5.464;2023-07-29T03:43:00;100448.38;;;23.43;65.17
55187;BME280;55457;52.002;5.464;2023-07-29T03:45:25;100450.84;;;23.34;64.99
55187;BME280;55457;52.002;5.464;2023-07-29T03:47:51;100459.81;;;23.35;64.99
55187;BME280;55457;52.002;5.464;2023-07-29T03:50:16;100460.34;;;23.37;65.35
55187;BME280;55457;52.002;5.464;2023-07-29T03:52:41;100456.00;;;23.31;64.55
55187;BME280;55457;52.002;5.464;2023-07-29T03:55:07;100454.66;;;23.18;65.35
55187;BME280;55457;52.002;5.464;2023-07-29T03:57:33;100451.63;;;23.04;64.97
55187;BME280;55457;52.002;5.464;2023-07-29T03:59:58;100449.41;;;22.86;65.13
55187;BME280;55457;52.002;5.464;2023-07-29T04:02:23;100452.38;;;22.84;65.90
55187;BME280;55457;52.002;5.464;2023-07-29T04:04:49;100455.66;;;22.86;65.88
55187;BME280;55457;52.002;5.464;2023-07-29T04:07:14;100457.88;;;22.89;66.27
55187;BME280;55457;52.002;5.464;2023-07-29T04:09:40;100454.34;;;22.89;65.88
55187;BME280;55457;52.002;5.464;2023-07-29T04:12:05;100446.19;;;22.94;65.87
55187;BME280;55457;52.002;5.464;2023-07-29T04:14:31;100443.75;;;22.98;65.81
55187;BME280;55457;52.002;5.464;2023-07-29T04:16:57;100447.28;;;23.03;65.48
55187;BME280;55457;52.002;5.464;2023-07-29T04:19:22;100440.22;;;23.07;65.42
55187;BME280;55457;52.002;5.464;2023-07-29T04:21:48;100444.31;;;23.10;65.54
55187;BME280;55457;52.002;5.464;2023-07-29T04:24:15;100439.41;;;23.12;65.37
55187;BME280;55457;52.002;5.464;2023-07-29T04:26:41;100451.38;;;23.16;64.98
55187;BME280;55457;52.002;5.464;2023-07-29T04:29:06;100445.66;;;23.17;65.47
55187;BME280;55457;52.002;5.464;2023-07-29T04:31:31;100448.94;;;23.20;65.32
55187;BME280;55457;52.002;5.464;2023-07-29T04:33:57;100448.94;;;23.20;65.03
55187;BME280;55457;52.002;5.464;2023-07-29T04:36:22;100450.28;;;23.22;65.20
55187;BME280;55457;52.002;5.464;2023-07-29T04:38:47;100461.44;;;23.26;65.21
55187;BME280;55457;52.002;5.464;2023-07-29T04:41:13;100458.72;;;23.26;64.97
55187;BME280;55457;52.002;5.464;2023-07-29T04:43:38;100451.09;;;23.28;64.78
55187;BME280;55457;52.002;5.464;2023-07-29T04:46:06;100460.34;;;23.27;64.69
55187;BME280;55457;52.002;5.464;2023-07-29T04:48:33;100451.66;;;23.25;64.26
55187;BME280;55457;52.002;5.464;2023-07-29T04:50:58;100457.09;;;23.14;64.35
55187;BME280;55457;52.002;5.464;2023-07-29T04:53:23;100468.75;;;23.15;64.47
55187;BME280;55457;52.002;5.464;2023-07-29T04:55:50;100462.53;;;23.14;63.74
55187;BME280;55457;52.002;5.464;2023-07-29T04:58:15;100460.59;;;23.00;64.12
55187;BME280;55457;52.002;5.464;2023-07-29T05:00:41;100469.28;;;23.02;64.40
55187;BME280;55457;52.002;5.464;2023-07-29T05:03:06;100465.50;;;23.03;64.56
55187;BME280;55457;52.002;5.464;2023-07-29T05:05:32;100466.56;;;23.07;64.72
55187;BME280;55457;52.002;5.464;2023-07-29T05:07:57;100475.28;;;23.09;64.52
55187;BME280;55457;52.002;5.464;2023-07-29T05:10:22;100471.47;;;23.00;64.37
55187;BME280;55457;52.002;5.464;2023-07-29T05:12:48;100475.28;;;22.99;64.52
55187;BME280;55457;52.002;5.464;2023-07-29T05:15:13;100467.41;;;22.97;64.53
55187;BME280;55457;52.002;5.464;2023-07-29T05:17:39;100467.41;;;22.97;64.31
55187;BME280;55457;52.002;5.464;2023-07-29T05:20:05;100466.56;;;22.91;64.70
55187;BME280;55457;52.002;5.464;2023-07-29T05:22:30;100464.41;;;22.88;64.61
55187;BME280;55457;52.002;5.464;2023-07-29T05:24:56;100462.97;;;22.86;64.82
55187;BME280;55457;52.002;5.464;2023-07-29T05:27:21;100473.59;;;22.87;64.79
55187;BME280;55457;52.002;5.464;2023-07-29T05:29:46;100473.84;;;22.81;64.67
55187;BME280;55457;52.002;5.464;2023-07-29T05:32:12;100480.13;;;22.81;65.07
55187;BME280;55457;52.002;5.464;2023-07-29T05:34:37;100484.69;;;22.81;65.10
55187;BME280;55457;52.002;5.464;2023-07-29T05:37:02;100486.88;;;22.79;65.24
55187;BME280;55457;52.002;5.464;2023-07-29T05:39:28;100487.19;;;22.82;65.03
55187;BME280;55457;52.002;5.464;2023-07-29T05:41:54;100492.06;;;22.85;65.27
55187;BME280;55457;52.002;5.464;2023-07-29T05:44:19;100477.66;;;22.85;64.43
55187;BME280;55457;52.002;5.464;2023-07-29T05:46:45;100485.81;;;22.85;64.74
55187;BME280;55457;52.002;5.464;2023-07-29T05:49:10;100481.72;;;22.77;65.01
55187;BME280;55457;52.002;5.464;2023-07-29T05:51:35;100483.91;;;22.80;65.05
55187;BME280;55457;52.002;5.464;2023-07-29T05:54:01;100486.59;;;22.80;64.92
55187;BME280;55457;52.002;5.464;2023-07-29T05:56:26;100480.63;;;22.78;65.28
55187;BME280;55457;52.002;5.464;2023-07-29T05:58:51;100483.06;;;22.75;65.39
55187;BME280;55457;52.002;5.464;2023-07-29T06:01:17;100484.16;;;22.74;65.38
55187;BME280;55457;52.002;5.464;2023-07-29T06:03:46;100483.88;;;22.75;65.44
55187;BME280;55457;52.002;5.464;2023-07-29T06:06:12;100475.47;;;22.72;65.94
55187;BME280;55457;52.002;5.464;2023-07-29T06:08:37;100469.75;;;22.68;66.09
55187;BME280;55457;52.002;5.464;2023-07-29T06:11:02;100464.03;;;22.70;65.91
55187;BME280;55457;52.002;5.464;2023-07-29T06:13:28;100469.22;;;22.66;66.16
55187;BME280;55457;52.002;5.464;2023-07-29T06:15:54;100476.00;;;22.69;66.05
55187;BME280;55457;52.002;5.464;2023-07-29T06:18:19;100487.13;;;22.67;66.34
55187;BME280;55457;52.002;5.464;2023-07-29T06:20:44;100489.00;;;22.56;66.81
55187;BME280;55457;52.002;5.464;2023-07-29T06:23:10;100488.44;;;22.59;66.89
55187;BME280;55457;52.002;5.464;2023-07-29T06:25:35;100490.09;;;22.65;66.67
55187;BME280;55457;52.002;5.464;2023-07-29T06:28:00;100487.97;;;22.73;66.46
55187;BME280;55457;52.002;5.464;2023-07-29T06:30:26;100483.06;;;22.80;66.29
55187;BME280;55457;52.002;5.464;2023-07-29T06:32:51;100494.53;;;22.87;66.79
55187;BME280;55457;52.002;5.464;2023-07-29T06:35:17;100489.13;;;22.92;67.28
55187;BME280;55457;52.002;5.464;2023-07-29T06:37:42;100497.84;;;22.99;67.96
55187;BME280;55457;52.002;5.464;2023-07-29T06:40:08;100493.50;;;23.03;68.29
55187;BME280;55457;52.002;5.464;2023-07-29T06:42:33;100494.03;;;23.00;68.29
55187;BME280;55457;52.002;5.464;2023-07-29T06:44:59;100489.66;;;22.94;68.49
55187;BME280;55457;52.002;5.464;2023-07-29T06:47:24;100497.81;;;22.94;68.58
55187;BME280;55457;52.002;5.464;2023-07-29T06:49:49;100492.88;;;22.86;68.48
55187;BME280;55457;52.002;5.464;2023-07-29T06:52:15;100496.13;;;22.78;68.26
55187;BME280;55457;52.002;5.464;2023-07-29T06:54:40;100493.69;;;22.76;68.98
55187;BME280;55457;52.002;5.464;2023-07-29T06:57:06;100495.03;;;22.79;68.75
55187;BME280;55457;52.002;5.464;2023-07-29T06:59:31;100499.94;;;22.82;68.43
55187;BME280;55457;52.002;5.464;2023-07-29T07:01:56;100500.47;;;22.84;68.13
55187;BME280;55457;52.002;5.464;2023-07-29T07:04:22;100501.28;;;22.84;68.40
55187;BME280;55457;52.002;5.464;2023-07-29T07:06:47;100507.53;;;22.80;68.41
55187;BME280;55457;52.002;5.464;2023-07-29T07:09:12;100500.47;;;22.84;68.42
55187;BME280;55457;52.002;5.464;2023-07-29T07:11:38;100500.47;;;22.84;68.47
55187;BME280;55457;52.002;5.464;2023-07-29T07:14:03;100501.00;;;22.81;68.80
55187;BME280;55457;52.002;5.464;2023-07-29T07:16:28;100505.38;;;22.82;68.54
55187;BME280;55457;52.002;5.464;2023-07-29T07:18:56;100499.66;;;22.83;68.65
55187;BME280;55457;52.002;5.464;2023-07-29T07:21:21;100502.09;;;22.80;68.67
55187;BME280;55457;52.002;5.464;2023-07-29T07:23:49;100510.50;;;22.73;68.51
55187;BME280;55457;52.002;5.464;2023-07-29T07:26:15;100511.84;;;22.71;68.93
55187;BME280;55457;52.002;5.464;2023-07-29T07:28:40;100518.66;;;22.73;68.89
55187;BME280;55457;52.002;5.464;2023-07-29T07:31:05;100514.31;;;22.72;69.57
55187;BME280;55457;52.002;5.464;2023-07-29T07:33:31;100515.41;;;22.76;68.93
55187;BME280;55457;52.002;5.464;2023-07-29T07:35:56;100510.25;;;22.80;68.69
55187;BME280;55457;52.002;5.464;2023-07-29T07:38:21;100515.16;;;22.83;68.62
55187;BME280;55457;52.002;5.464;2023-07-29T07:40:56;100515.16;;;22.83;68.16
55187;BME280;55457;52.002;5.464;2023-07-29T07:43:22;100513.53;;;22.82;69.00
55187;BME280;55457;52.002;5.464;2023-07-29T07:45:48;100509.44;;;22.84;68.54
55187;BME280;55457;52.002;5.464;2023-07-29T07:48:13;100521.16;;;22.90;68.80
55187;BME280;55457;52.002;5.464;2023-07-29T07:50:39;100511.41;;;22.94;68.55
55187;BME280;55457;52.002;5.464;2023-07-29T07:53:05;100522.56;;;22.98;68.43
55187;BME280;55457;52.002;5.464;2023-07-29T07:55:30;100525.00;;;22.99;68.24
55187;BME280;55457;52.002;5.464;2023-07-29T07:57:56;100522.59;;;23.03;67.98
55187;BME280;55457;52.002;5.464;2023-07-29T08:00:21;100521.75;;;23.07;67.95
55187;BME280;55457;52.002;5.464;2023-07-29T08:02:46;100524.75;;;23.06;67.82
55187;BME280;55457;52.002;5.464;2023-07-29T08:05:13;100510.06;;;23.02;67.56
55187;BME280;55457;52.002;5.464;2023-07-29T08:07:39;100527.19;;;23.02;68.25
55187;BME280;55457;52.002;5.464;2023-07-29T08:10:05;100527.44;;;23.01;68.23
55187;BME280;55457;52.002;5.464;2023-07-29T08:12:30;100509.81;;;23.03;67.71
55187;BME280;55457;52.002;5.464;2023-07-29T08:14:55;100512.53;;;23.03;68.24
55187;BME280;55457;52.002;5.464;2023-07-29T08:17:21;100513.34;;;23.04;68.13
55187;BME280;55457;52.002;5.464;2023-07-29T08:19:46;100519.31;;;23.06;67.87
55187;BME280;55457;52.002;5.464;2023-07-29T08:22:11;100519.31;;;23.06;67.81
55187;BME280;55457;52.002;5.464;2023-07-29T08:24:37;100517.97;;;23.08;67.70
55187;BME280;55457;52.002;5.464;2023-07-29T08:27:02;100528.28;;;23.06;67.99
55187;BME280;55457;52.002;5.464;2023-07-29T08:29:28;100525.56;;;23.06;67.96
55187;BME280;55457;52.002;5.464;2023-07-29T08:31:53;100534.28;;;23.08;67.86
55187;BME280;55457;52.002;5.464;2023-07-29T08:34:20;100528.03;;;23.08;67.30
55187;BME280;55457;52.002;5.464;2023-07-29T08:36:46;100523.94;;;23.10;67.19
55187;BME280;55457;52.002;5.464;2023-07-29T08:39:11;100519.59;;;23.09;67.00
55187;BME280;55457;52.002;5.464;2023-07-29T08:41:49;100523.94;;;23.05;67.38
55187;BME280;55457;52.002;5.464;2023-07-29T08:44:21;100527.19;;;23.07;67.46
55187;BME280;55457;52.002;5.464;2023-07-29T08:46:50;100525.84;;;23.10;66.98
55187;BME280;55457;52.002;5.464;2023-07-29T08:49:17;100533.19;;;23.14;66.89
55187;BME280;55457;52.002;5.464;2023-07-29T08:51:47;100527.75;;;23.14;67.33
55187;BME280;55457;52.002;5.464;2023-07-29T08:54:13;100523.94;;;23.15;67.18
55187;BME280;55457;52.002;5.464;2023-07-29T08:56:41;100520.13;;;23.16;67.30
55187;BME280;55457;52.002;5.464;2023-07-29T08:59:07;100518.50;;;23.15;67.72
55187;BME280;55457;52.002;5.464;2023-07-29T09:01:33;100522.84;;;23.11;67.12
55187;BME280;55457;52.002;5.464;2023-07-29T09:03:59;100527.72;;;22.99;67.11
55187;BME280;55457;52.002;5.464;2023-07-29T09:06:24;100523.63;;;22.97;67.70
55187;BME280;55457;52.002;5.464;2023-07-29T09:08:54;100528.25;;;22.96;67.69
55187;BME280;55457;52.002;5.464;2023-07-29T09:11:21;100524.47;;;22.97;67.75
55187;BME280;55457;52.002;5.464;2023-07-29T09:13:47;100522.56;;;22.98;67.50
55187;BME280;55457;52.002;5.464;2023-07-29T09:16:13;100534.25;;;22.98;67.62
55187;BME280;55457;52.002;5.464;2023-07-29T09:18:39;100524.47;;;23.02;67.64
55187;BME280;55457;52.002;5.464;2023-07-29T09:21:04;100532.06;;;23.00;67.50
55187;BME280;55457;52.002;5.464;2023-07-29T09:23:42;100521.50;;;23.04;67.79
55187;BME280;55457;52.002;5.464;2023-07-29T09:26:08;100523.94;;;23.10;67.77
55187;BME280;55457;52.002;5.464;2023-07-29T09:28:35;100528.28;;;23.16;67.78
55187;BME280;55457;52.002;5.464;2023-07-29T09:31:01;100528.84;;;23.18;67.69
55187;BME280;55457;52.002;5.464;2023-07-29T09:33:27;100525.56;;;23.16;67.28
55187;BME280;55457;52.002;5.464;2023-07-29T09:35:52;100522.31;;;23.14;67.10
55187;BME280;55457;52.002;5.464;2023-07-29T09:38:18;100529.09;;;23.12;66.86
55187;BME280;55457;52.002;5.464;2023-07-29T09:40:55;100529.91;;;23.12;66.57
55187;BME280;55457;52.002;5.464;2023-07-29T09:43:25;100522.31;;;23.09;66.74
55187;BME280;55457;52.002;5.464;2023-07-29T09:45:52;100522.84;;;23.11;67.01
55187;BME280;55457;52.002;5.464;2023-07-29T09:48:22;100519.31;;;23.11;66.59
55187;BME280;55457;52.002;5.464;2023-07-29T09:50:47;100529.66;;;23.14;66.39
55187;BME280;55457;52.002;5.464;2023-07-29T09:53:14;100522.84;;;23.16;66.11
55187;BME280;55457;52.002;5.464;2023-07-29T09:55:40;100514.72;;;23.22;66.35
55187;BME280;55457;52.002;5.464;2023-07-29T09:58:11;100514.44;;;23.28;66.40
55187;BME280;55457;52.002;5.464;2023-07-29T10:00:36;100514.72;;;23.32;66.26
55187;BME280;55457;52.002;5.464;2023-07-29T10:03:04;100514.72;;;23.37;65.88
55187;BME280;55457;52.002;5.464;2023-07-29T10:05:29;100522.06;;;23.41;65.80
55187;BME280;55457;52.002;5.464;2023-07-29T10:07:56;100523.97;;;23.41;65.95
55187;BME280;55457;52.002;5.464;2023-07-29T10:10:22;100529.69;;;23.39;65.79
55187;BME280;55457;52.002;5.464;2023-07-29T10:12:47;100535.94;;;23.40;65.91
55187;BME280;55457;52.002;5.464;2023-07-29T10:15:13;100529.41;;;23.41;65.92
55187;BME280;55457;52.002;5.464;2023-07-29T10:17:39;100535.38;;;23.43;65.69
55187;BME280;55457;52.002;5.464;2023-07-29T10:20:09;100526.69;;;23.41;65.80
55187;BME280;55457;52.002;5.464;2023-07-29T10:22:40;100528.31;;;23.42;65.69
55187;BME280;55457;52.002;5.464;2023-07-29T10:25:24;100534.56;;;23.37;65.59
55187;BME280;55457;52.002;5.464;2023-07-29T10:27:56;100525.59;;;23.37;65.90
55187;BME280;55457;52.002;5.464;2023-07-29T10:30:24;100532.13;;;23.41;66.06
55187;BME280;55457;52.002;5.464;2023-07-29T10:32:51;100530.75;;;23.43;65.95
55187;BME280;55457;52.002;5.464;2023-07-29T10:35:17;100538.66;;;23.45;66.01
55187;BME280;55457;52.002;5.464;2023-07-29T10:37:43;100540.56;;;23.44;65.58
55187;BME280;55457;52.002;5.464;2023-07-29T10:40:11;100538.91;;;23.43;65.96
55187;BME280;55457;52.002;5.464;2023-07-29T10:42:41;100547.91;;;23.44;65.92
55187;BME280;55457;52.002;5.464;2023-07-29T10:45:24;100549.78;;;23.43;66.16
55187;BME280;55457;52.002;5.464;2023-07-29T10:47:49;100547.91;;;23.44;66.35
55187;BME280;55457;52.002;5.464;2023-07-29T10:50:20;100543.00;;;23.41;66.93
55187;BME280;55457;52.002;5.464;2023-07-29T10:52:52;100542.19;;;23.40;66.77
55187;BME280;55457;52.002;5.464;2023-07-29T10:55:35;100553.34;;;23.44;66.90
55187;BME280;55457;52.002;5.464;2023-07-29T11:00:31;100544.09;;;23.45;67.22
55187;BME280;55457;52.002;5.464;2023-07-29T11:03:07;100553.63;;;23.48;67.04
55187;BME280;55457;52.002;5.464;2023-07-29T11:05:50;100550.09;;;23.47;67.35
55187;BME280;55457;52.002;5.464;2023-07-29T11:08:24;100548.75;;;23.44;67.71
55187;BME280;55457;52.002;5.464;2023-07-29T11:13:28;100559.34;;;23.46;67.38
55187;BME280;55457;52.002;5.464;2023-07-29T11:15:54;100548.75;;;23.44;67.32
55187;BME280;55457;52.002;5.464;2023-07-29T11:18:20;100555.00;;;23.45;67.58
55187;BME280;55457;52.002;5.464;2023-07-29T11:20:46;100550.38;;;23.46;67.35
55187;BME280;55457;52.002;5.464;2023-07-29T11:23:13;100552.00;;;23.47;67.24
55187;BME280;55457;52.002;5.464;2023-07-29T11:25:38;100546.25;;;23.43;68.30
55187;BME280;55457;52.002;5.464;2023-07-29T11:28:04;100552.78;;;23.37;68.42
55187;BME280;55457;52.002;5.464;2023-07-29T11:30:29;100552.25;;;23.35;68.17
55187;BME280;55457;52.002;5.464;2023-07-29T11:32:57;100551.16;;;23.36;67.93
55187;BME280;55457;52.002;5.464;2023-07-29T11:35:24;100555.50;;;23.37;68.14
55187;BME280;55457;52.002;5.464;2023-07-29T11:37:51;100551.69;;;23.38;67.92
55187;BME280;55457;52.002;5.464;2023-07-29T11:40:18;100552.50;;;23.38;67.85
55187;BME280;55457;52.002;5.464;2023-07-29T11:42:44;100545.19;;;23.39;67.80
55187;BME280;55457;52.002;5.464;2023-07-29T11:45:10;100543.81;;;23.41;67.83
55187;BME280;55457;52.002;5.464;2023-07-29T11:47:36;100544.63;;;23.42;67.70
55187;BME280;55457;52.002;5.464;2023-07-29T11:50:07;100545.44;;;23.42;67.45
55187;BME280;55457;52.002;5.464;2023-07-29T11:52:35;100547.34;;;23.42;67.76
55187;BME280;55457;52.002;5.464;2023-07-29T11:55:02;100550.63;;;23.44;67.68
55187;BME280;55457;52.002;5.464;2023-07-29T11:57:29;100550.38;;;23.46;67.43
55187;BME280;55457;52.002;5.464;2023-07-29T11:59:55;100550.66;;;23.49;67.42
55187;BME280;55457;52.002;5.464;2023-07-29T12:02:20;100551.72;;;23.53;67.53
55187;BME280;55457;52.002;5.464;2023-07-29T12:04:48;100553.34;;;23.59;67.55
55187;BME280;55457;52.002;5.464;2023-07-29T12:07:14;100563.72;;;23.67;67.71
55187;BME280;55457;52.002;5.464;2023-07-29T12:09:41;100560.72;;;23.69;67.96
55187;BME280;55457;52.002;5.464;2023-07-29T12:12:12;100552.31;;;23.71;67.99
55187;BME280;55457;52.002;5.464;2023-07-29T12:14:37;100553.13;;;23.76;68.31
55187;BME280;55457;52.002;5.464;2023-07-29T12:17:05;100549.03;;;23.79;69.17
55187;BME280;55457;52.002;5.464;2023-07-29T12:19:34;100550.66;;;23.80;69.01
55187;BME280;55457;52.002;5.464;2023-07-29T12:22:01;100548.22;;;23.78;69.14
55187;BME280;55457;52.002;5.464;2023-07-29T12:24:29;100543.28;;;23.80;68.82
55187;BME280;55457;52.002;5.464;2023-07-29T12:26:55;100557.47;;;23.82;69.06
55187;BME280;55457;52.002;5.464;2023-07-29T12:29:20;100543.59;;;23.79;68.76
55187;BME280;55457;52.002;5.464;2023-07-29T12:31:46;100540.84;;;23.79;69.04
55187;BME280;55457;52.002;5.464;2023-07-29T12:34:19;100543.88;;;23.77;68.66
55187;BME280;55457;52.002;5.464;2023-07-29T12:36:49;100541.94;;;23.78;68.50
55187;BME280;55457;52.002;5.464;2023-07-29T12:39:19;100547.41;;;23.78;68.46
55187;BME280;55457;52.002;5.464;2023-07-29T12:41:45;100540.56;;;23.80;68.67
55187;BME280;55457;52.002;5.464;2023-07-29T12:44:10;100544.66;;;23.83;68.38
55187;BME280;55457;52.002;5.464;2023-07-29T12:46:36;100544.38;;;23.79;69.22
55187;BME280;55457;52.002;5.464;2023-07-29T12:49:01;100542.75;;;23.78;69.02
55187;BME280;55457;52.002;5.464;2023-07-29T12:51:26;100543.56;;;23.84;68.64
55187;BME280;55457;52.002;5.464;2023-07-29T12:53:53;100539.75;;;23.90;68.63
55187;BME280;55457;52.002;5.464;2023-07-29T12:56:19;100530.25;;;23.92;68.72
55187;BME280;55457;52.002;5.464;2023-07-29T12:58:44;100529.16;;;23.93;69.10
55187;BME280;55457;52.002;5.464;2023-07-29T13:01:09;100527.22;;;23.99;68.78
55187;BME280;55457;52.002;5.464;2023-07-29T13:03:38;100533.75;;;24.03;69.33